sensor_id;sensor_type;location;lat;lon;timestamp;temperature;humidity
19025;DHT22;9645;51.448;6.260;2022-12-18T00:01:15;-5.10;99.90
19025;DHT22;9645;51.448;6.260;2022-12-18T00:08:37;-5.00;99.90
19025;DHT22;9645;51.448;6.260;2022-12-18T00:11:06;-5.00;99.90
19025;DHT22;9645;51.448;6.260;2022-12-18T00:16:01;-5.00;99.90
19025;DHT22;9645;51.448;6.260;2022-12-18T00:18:28;-5.00;99.90
19025;DHT22;9645;51.448;6.260;2022-12-18T00:20:58;-5.00;99.90
19025;DHT22;9645;51.448;6.260;2022-12-18T00:23:26;-5.00;99.90
19025;DHT22;9645;51.448;6.260;2022-12-18T00:28:21;-5.00;99.90
19025;DHT22;9645;51.448;6.260;2022-12-18T00:30:48;-5.00;99.90
19025;DHT22;9645;51.448;6.260;2022-12-18T00:35:44;-5.00;99.90
19025;DHT22;9645;51.448;6.260;2022-12-18T00:38:11;-4.90;99.90
19025;DHT22;9645;51.448;6.260;2022-12-18T00:40:38;-5.00;99.90
19025;DHT22;9645;51.448;6.260;2022-12-18T00:45:33;-5.00;99.90
19025;DHT22;9645;51.448;6.260;2022-12-18T00:55:22;-5.00;99.90
19025;DHT22;9645;51.448;6.260;2022-12-18T00:57:51;-5.00;99.90
19025;DHT22;9645;51.448;6.260;2022-12-18T01:00:18;-5.00;99.90
19025;DHT22;9645;51.448;6.260;2022-12-18T01:02:46;-5.00;99.90
19025;DHT22;9645;51.448;6.260;2022-12-18T01:05:14;-5.10;99.90
19025;DHT22;9645;51.448;6.260;2022-12-18T01:10:11;-5.00;99.90
19025;DHT22;9645;51.448;6.260;2022-12-18T01:15:07;-5.10;99.90
19025;DHT22;9645;51.448;6.260;2022-12-18T01:17:34;-5.10;99.90
19025;DHT22;9645;51.448;6.260;2022-12-18T01:20:04;-5.10;99.90
19025;DHT22;9645;51.448;6.260;2022-12-18T01:22:34;-5.10;99.90
19025;DHT22;9645;51.448;6.260;2022-12-18T01:25:01;-5.20;99.90
19025;DHT22;9645;51.448;6.260;2022-12-18T01:29:55;-5.10;99.90
19025;DHT22;9645;51.448;6.260;2022-12-18T01:32:22;-5.10;99.90
19025;DHT22;9645;51.448;6.260;2022-12-18T01:37:18;-5.10;99.90
19025;DHT22;9645;51.448;6.260;2022-12-18T01:39:45;-5.10;99.90
19025;DHT22;9645;51.448;6.260;2022-12-18T01:42:13;-5.10;99.90
19025;DHT22;9645;51.448;6.260;2022-12-18T01:45:05;-5.00;99.90
19025;DHT22;9645;51.448;6.260;2022-12-18T01:47:36;-5.10;99.90
19025;DHT22;9645;51.448;6.260;2022-12-18T01:50:07;-5.10;99.90
19025;DHT22;9645;51.448;6.260;2022-12-18T01:52:36;-5.10;99.90
19025;DHT22;9645;51.448;6.260;2022-12-18T01:55:05;-5.10;99.90
19025;DHT22;9645;51.448;6.260;2022-12-18T01:57:34;-5.20;99.90
19025;DHT22;9645;51.448;6.260;2022-12-18T02:00:07;-5.00;99.90
19025;DHT22;9645;51.448;6.260;2022-12-18T02:02:35;-5.10;99.90
19025;DHT22;9645;51.448;6.260;2022-12-18T02:05:03;-5.10;99.90
19025;DHT22;9645;51.448;6.260;2022-12-18T02:07:41;-5.10;99.90
19025;DHT22;9645;51.448;6.260;2022-12-18T02:10:14;-5.20;99.90
19025;DHT22;9645;51.448;6.260;2022-12-18T02:12:49;-5.20;99.90
19025;DHT22;9645;51.448;6.260;2022-12-18T02:15:23;-5.30;99.90
19025;DHT22;9645;51.448;6.260;2022-12-18T02:17:55;-6.20;99.90
19025;DHT22;9645;51.448;6.260;2022-12-18T02:20:28;-5.30;99.90
19025;DHT22;9645;51.448;6.260;2022-12-18T02:23:06;-5.30;99.90
19025;DHT22;9645;51.448;6.260;2022-12-18T02:25:52;-5.20;99.90
19025;DHT22;9645;51.448;6.260;2022-12-18T02:28:23;-5.30;99.90
19025;DHT22;9645;51.448;6.260;2022-12-18T02:30:53;-5.30;99.90
19025;DHT22;9645;51.448;6.260;2022-12-18T02:33:26;-5.20;99.90
19025;DHT22;9645;51.448;6.260;2022-12-18T02:35:54;-5.30;99.90
19025;DHT22;9645;51.448;6.260;2022-12-18T02:38:23;-5.20;99.90
19025;DHT22;9645;51.448;6.260;2022-12-18T02:40:53;-5.20;99.90
19025;DHT22;9645;51.448;6.260;2022-12-18T02:45:50;-5.30;99.90
19025;DHT22;9645;51.448;6.260;2022-12-18T02:48:22;-5.30;99.90
19025;DHT22;9645;51.448;6.260;2022-12-18T02:50:57;-5.30;99.90
19025;DHT22;9645;51.448;6.260;2022-12-18T02:53:33;-5.30;99.90
19025;DHT22;9645;51.448;6.260;2022-12-18T02:56:09;-5.30;99.90
19025;DHT22;9645;51.448;6.260;2022-12-18T02:58:41;-5.30;99.90
19025;DHT22;9645;51.448;6.260;2022-12-18T03:01:16;-5.20;99.90
19025;DHT22;9645;51.448;6.260;2022-12-18T03:03:49;-5.20;99.90
19025;DHT22;9645;51.448;6.260;2022-12-18T03:06:21;-5.20;99.90
19025;DHT22;9645;51.448;6.260;2022-12-18T03:08:54;-5.10;99.90
19025;DHT22;9645;51.448;6.260;2022-12-18T03:11:29;-5.20;99.90
19025;DHT22;9645;51.448;6.260;2022-12-18T03:14:24;-5.10;99.90
19025;DHT22;9645;51.448;6.260;2022-12-18T03:16:54;-5.10;99.90
19025;DHT22;9645;51.448;6.260;2022-12-18T03:19:27;-5.10;99.90
19025;DHT22;9645;51.448;6.260;2022-12-18T03:21:56;-5.00;99.90
19025;DHT22;9645;51.448;6.260;2022-12-18T03:24:27;-5.00;99.90
19025;DHT22;9645;51.448;6.260;2022-12-18T03:27:02;-5.00;99.90
19025;DHT22;9645;51.448;6.260;2022-12-18T03:29:35;-5.00;99.90
19025;DHT22;9645;51.448;6.260;2022-12-18T03:32:07;-4.90;99.90
19025;DHT22;9645;51.448;6.260;2022-12-18T03:34:38;-5.00;99.90
19025;DHT22;9645;51.448;6.260;2022-12-18T03:37:07;-4.90;99.90
19025;DHT22;9645;51.448;6.260;2022-12-18T03:39:34;-4.90;99.90
19025;DHT22;9645;51.448;6.260;2022-12-18T03:42:05;-4.90;99.90
19025;DHT22;9645;51.448;6.260;2022-12-18T03:44:40;-4.90;99.90
19025;DHT22;9645;51.448;6.260;2022-12-18T03:47:14;-5.00;99.90
19025;DHT22;9645;51.448;6.260;2022-12-18T03:49:47;-4.90;99.90
19025;DHT22;9645;51.448;6.260;2022-12-18T03:52:20;-4.70;99.90
19025;DHT22;9645;51.448;6.260;2022-12-18T03:54:48;-4.90;99.90
19025;DHT22;9645;51.448;6.260;2022-12-18T03:57:19;-4.80;99.90
19025;DHT22;9645;51.448;6.260;2022-12-18T03:59:49;-4.90;99.90
19025;DHT22;9645;51.448;6.260;2022-12-18T04:02:17;-4.80;99.90
19025;DHT22;9645;51.448;6.260;2022-12-18T04:04:45;-4.80;99.90
19025;DHT22;9645;51.448;6.260;2022-12-18T04:07:14;-4.80;99.90
19025;DHT22;9645;51.448;6.260;2022-12-18T04:14:38;-4.80;99.90
19025;DHT22;9645;51.448;6.260;2022-12-18T04:17:05;-4.80;99.90
19025;DHT22;9645;51.448;6.260;2022-12-18T04:21:59;-4.80;99.90
19025;DHT22;9645;51.448;6.260;2022-12-18T04:26:54;-4.80;99.90
19025;DHT22;9645;51.448;6.260;2022-12-18T04:29:21;-4.70;99.90
19025;DHT22;9645;51.448;6.260;2022-12-18T04:31:49;-4.70;99.90
19025;DHT22;9645;51.448;6.260;2022-12-18T04:34:16;-4.70;99.90
19025;DHT22;9645;51.448;6.260;2022-12-18T04:41:37;-4.60;99.90
19025;DHT22;9645;51.448;6.260;2022-12-18T04:44:04;-4.60;99.90
19025;DHT22;9645;51.448;6.260;2022-12-18T04:49:00;-4.70;99.90
19025;DHT22;9645;51.448;6.260;2022-12-18T04:51:27;-4.60;99.90
19025;DHT22;9645;51.448;6.260;2022-12-18T04:56:21;-4.60;99.90
19025;DHT22;9645;51.448;6.260;2022-12-18T05:01:17;-4.60;99.90
19025;DHT22;9645;51.448;6.260;2022-12-18T05:06:13;-4.50;99.90
19025;DHT22;9645;51.448;6.260;2022-12-18T05:11:09;-4.50;99.90
19025;DHT22;9645;51.448;6.260;2022-12-18T05:13:37;-4.50;99.90
19025;DHT22;9645;51.448;6.260;2022-12-18T05:16:05;-4.50;99.90
19025;DHT22;9645;51.448;6.260;2022-12-18T05:18:32;-4.60;99.90
19025;DHT22;9645;51.448;6.260;2022-12-18T05:20:59;-4.50;99.90
19025;DHT22;9645;51.448;6.260;2022-12-18T05:23:28;-4.60;99.90
19025;DHT22;9645;51.448;6.260;2022-12-18T05:25:57;-4.60;99.90
19025;DHT22;9645;51.448;6.260;2022-12-18T05:28:26;-4.50;99.90
19025;DHT22;9645;51.448;6.260;2022-12-18T05:30:55;-4.50;99.90
19025;DHT22;9645;51.448;6.260;2022-12-18T05:33:24;-4.50;99.90
19025;DHT22;9645;51.448;6.260;2022-12-18T05:35:51;-4.50;99.90
19025;DHT22;9645;51.448;6.260;2022-12-18T05:38:18;-4.40;99.90
19025;DHT22;9645;51.448;6.260;2022-12-18T05:40:47;-4.40;99.90
19025;DHT22;9645;51.448;6.260;2022-12-18T05:45:42;-4.30;99.90
19025;DHT22;9645;51.448;6.260;2022-12-18T05:48:12;-4.30;99.90
19025;DHT22;9645;51.448;6.260;2022-12-18T05:50:41;-4.30;99.90
19025;DHT22;9645;51.448;6.260;2022-12-18T05:53:08;-4.30;99.90
19025;DHT22;9645;51.448;6.260;2022-12-18T05:55:37;-4.30;99.90
19025;DHT22;9645;51.448;6.260;2022-12-18T05:58:07;-4.30;99.90
19025;DHT22;9645;51.448;6.260;2022-12-18T06:00:37;-4.30;99.90
19025;DHT22;9645;51.448;6.260;2022-12-18T06:03:06;-4.30;99.90
19025;DHT22;9645;51.448;6.260;2022-12-18T06:05:35;-4.30;99.90
19025;DHT22;9645;51.448;6.260;2022-12-18T06:08:03;-4.10;99.90
19025;DHT22;9645;51.448;6.260;2022-12-18T06:10:30;-4.30;99.90
19025;DHT22;9645;51.448;6.260;2022-12-18T06:12:57;-4.10;99.90
19025;DHT22;9645;51.448;6.260;2022-12-18T06:15:25;-4.20;99.90
19025;DHT22;9645;51.448;6.260;2022-12-18T06:17:55;-4.30;99.90
19025;DHT22;9645;51.448;6.260;2022-12-18T06:20:22;-4.20;99.90
19025;DHT22;9645;51.448;6.260;2022-12-18T06:22:49;-4.30;99.90
19025;DHT22;9645;51.448;6.260;2022-12-18T06:25:16;-4.20;99.90
19025;DHT22;9645;51.448;6.260;2022-12-18T06:27:43;-4.30;99.90
19025;DHT22;9645;51.448;6.260;2022-12-18T06:30:11;-4.20;99.90
19025;DHT22;9645;51.448;6.260;2022-12-18T06:32:40;-4.30;99.90
19025;DHT22;9645;51.448;6.260;2022-12-18T06:35:07;-4.20;99.90
19025;DHT22;9645;51.448;6.260;2022-12-18T06:40:02;-4.20;99.90
19025;DHT22;9645;51.448;6.260;2022-12-18T06:44:56;-4.20;99.90
19025;DHT22;9645;51.448;6.260;2022-12-18T06:47:23;-4.20;99.90
19025;DHT22;9645;51.448;6.260;2022-12-18T06:49:51;-4.20;99.90
19025;DHT22;9645;51.448;6.260;2022-12-18T06:52:18;-4.30;99.90
19025;DHT22;9645;51.448;6.260;2022-12-18T07:02:10;-4.40;99.90
19025;DHT22;9645;51.448;6.260;2022-12-18T07:04:38;-4.30;99.90
19025;DHT22;9645;51.448;6.260;2022-12-18T07:07:06;-4.30;99.90
19025;DHT22;9645;51.448;6.260;2022-12-18T07:12:00;-4.40;99.90
19025;DHT22;9645;51.448;6.260;2022-12-18T07:16:54;-4.20;99.90
19025;DHT22;9645;51.448;6.260;2022-12-18T07:19:24;-4.20;99.90
19025;DHT22;9645;51.448;6.260;2022-12-18T07:21:51;-4.20;99.90
19025;DHT22;9645;51.448;6.260;2022-12-18T07:24:20;-4.20;99.90
19025;DHT22;9645;51.448;6.260;2022-12-18T07:29:14;-4.20;99.90
19025;DHT22;9645;51.448;6.260;2022-12-18T07:31:41;-4.20;99.90
19025;DHT22;9645;51.448;6.260;2022-12-18T07:34:10;-4.10;99.90
19025;DHT22;9645;51.448;6.260;2022-12-18T07:39:04;-4.10;99.90
19025;DHT22;9645;51.448;6.260;2022-12-18T07:41:33;-4.00;99.90
19025;DHT22;9645;51.448;6.260;2022-12-18T07:48:54;-3.90;99.90
19025;DHT22;9645;51.448;6.260;2022-12-18T07:51:21;-3.90;99.90
19025;DHT22;9645;51.448;6.260;2022-12-18T07:53:48;-4.00;99.90
19025;DHT22;9645;51.448;6.260;2022-12-18T07:58:44;-3.80;99.90
19025;DHT22;9645;51.448;6.260;2022-12-18T08:01:12;-3.80;99.90
19025;DHT22;9645;51.448;6.260;2022-12-18T08:03:39;-3.70;99.90
19025;DHT22;9645;51.448;6.260;2022-12-18T08:06:09;-3.70;99.90
19025;DHT22;9645;51.448;6.260;2022-12-18T08:08:36;-3.60;99.90
19025;DHT22;9645;51.448;6.260;2022-12-18T08:11:03;-3.60;99.90
19025;DHT22;9645;51.448;6.260;2022-12-18T08:16:01;-3.50;99.90
19025;DHT22;9645;51.448;6.260;2022-12-18T08:18:29;-3.40;99.90
19025;DHT22;9645;51.448;6.260;2022-12-18T08:20:56;-3.30;99.90
19025;DHT22;9645;51.448;6.260;2022-12-18T08:23:23;-3.30;99.90
19025;DHT22;9645;51.448;6.260;2022-12-18T08:25:50;-3.20;99.90
19025;DHT22;9645;51.448;6.260;2022-12-18T08:30:46;-3.10;99.90
19025;DHT22;9645;51.448;6.260;2022-12-18T08:33:20;-3.00;99.90
19025;DHT22;9645;51.448;6.260;2022-12-18T08:38:14;-2.90;99.90
19025;DHT22;9645;51.448;6.260;2022-12-18T08:43:09;-2.80;99.90
19025;DHT22;9645;51.448;6.260;2022-12-18T08:45:54;-2.70;99.90
19025;DHT22;9645;51.448;6.260;2022-12-18T08:48:23;-2.50;99.90
19025;DHT22;9645;51.448;6.260;2022-12-18T08:50:56;-2.50;99.90
19025;DHT22;9645;51.448;6.260;2022-12-18T08:53:24;-2.50;99.90
19025;DHT22;9645;51.448;6.260;2022-12-18T08:55:51;-2.50;99.90
19025;DHT22;9645;51.448;6.260;2022-12-18T08:58:19;-2.40;99.90
19025;DHT22;9645;51.448;6.260;2022-12-18T09:00:46;-2.40;99.90
19025;DHT22;9645;51.448;6.260;2022-12-18T09:03:13;-2.20;99.90
19025;DHT22;9645;51.448;6.260;2022-12-18T09:05:42;-2.30;99.90
19025;DHT22;9645;51.448;6.260;2022-12-18T09:08:09;-2.30;99.90
19025;DHT22;9645;51.448;6.260;2022-12-18T09:10:41;-2.30;99.90
19025;DHT22;9645;51.448;6.260;2022-12-18T09:13:09;-2.20;99.90
19025;DHT22;9645;51.448;6.260;2022-12-18T09:15:41;-2.20;99.90
19025;DHT22;9645;51.448;6.260;2022-12-18T09:18:08;-2.10;99.90
19025;DHT22;9645;51.448;6.260;2022-12-18T09:20:35;-2.10;99.90
19025;DHT22;9645;51.448;6.260;2022-12-18T09:23:04;-2.10;99.90
19025;DHT22;9645;51.448;6.260;2022-12-18T09:25:34;-1.90;99.90
19025;DHT22;9645;51.448;6.260;2022-12-18T09:28:04;-1.90;99.90
19025;DHT22;9645;51.448;6.260;2022-12-18T09:32:59;-1.70;99.90
19025;DHT22;9645;51.448;6.260;2022-12-18T09:35:26;-1.60;99.90
19025;DHT22;9645;51.448;6.260;2022-12-18T09:40:25;-1.50;99.90
19025;DHT22;9645;51.448;6.260;2022-12-18T09:42:59;-1.40;99.90
19025;DHT22;9645;51.448;6.260;2022-12-18T09:45:28;-1.40;99.90
19025;DHT22;9645;51.448;6.260;2022-12-18T09:47:57;-1.40;99.90
19025;DHT22;9645;51.448;6.260;2022-12-18T09:50:30;-1.40;99.90
19025;DHT22;9645;51.448;6.260;2022-12-18T09:53:04;-1.30;99.90
19025;DHT22;9645;51.448;6.260;2022-12-18T09:55:35;-1.30;99.90
19025;DHT22;9645;51.448;6.260;2022-12-18T09:58:10;-1.30;99.90
19025;DHT22;9645;51.448;6.260;2022-12-18T10:00:43;-1.10;99.90
19025;DHT22;9645;51.448;6.260;2022-12-18T10:03:15;-1.10;99.90
19025;DHT22;9645;51.448;6.260;2022-12-18T10:05:49;-1.10;99.90
19025;DHT22;9645;51.448;6.260;2022-12-18T10:08:25;-1.00;99.90
19025;DHT22;9645;51.448;6.260;2022-12-18T10:11:01;-1.00;99.90
19025;DHT22;9645;51.448;6.260;2022-12-18T10:13:33;-1.00;99.90
19025;DHT22;9645;51.448;6.260;2022-12-18T10:16:09;-0.80;99.90
19025;DHT22;9645;51.448;6.260;2022-12-18T10:19:00;-0.80;99.90
19025;DHT22;9645;51.448;6.260;2022-12-18T10:21:33;-0.70;99.90
19025;DHT22;9645;51.448;6.260;2022-12-18T10:24:12;-0.70;99.90
19025;DHT22;9645;51.448;6.260;2022-12-18T10:26:43;-0.60;99.90
19025;DHT22;9645;51.448;6.260;2022-12-18T10:29:12;-0.60;99.90
19025;DHT22;9645;51.448;6.260;2022-12-18T10:34:09;-0.50;99.90
19025;DHT22;9645;51.448;6.260;2022-12-18T10:36:40;-0.50;99.90
19025;DHT22;9645;51.448;6.260;2022-12-18T10:39:18;-0.60;99.90
19025;DHT22;9645;51.448;6.260;2022-12-18T10:41:47;-0.50;99.90
19025;DHT22;9645;51.448;6.260;2022-12-18T10:44:17;-0.50;99.90
19025;DHT22;9645;51.448;6.260;2022-12-18T10:46:45;-0.40;99.90
19025;DHT22;9645;51.448;6.260;2022-12-18T10:49:22;-0.30;99.90
19025;DHT22;9645;51.448;6.260;2022-12-18T10:51:50;-0.20;99.90
19025;DHT22;9645;51.448;6.260;2022-12-18T10:54:21;-0.20;99.90
19025;DHT22;9645;51.448;6.260;2022-12-18T10:56:49;-0.10;99.90
19025;DHT22;9645;51.448;6.260;2022-12-18T10:59:19;1.40;99.90
19025;DHT22;9645;51.448;6.260;2022-12-18T11:01:49;-0.10;99.90
19025;DHT22;9645;51.448;6.260;2022-12-18T11:04:19;-0.10;99.90
19025;DHT22;9645;51.448;6.260;2022-12-18T11:06:58;0.50;99.90
19025;DHT22;9645;51.448;6.260;2022-12-18T11:09:27;0.00;99.90
19025;DHT22;9645;51.448;6.260;2022-12-18T11:12:00;0.00;99.90
19025;DHT22;9645;51.448;6.260;2022-12-18T11:14:29;-0.10;99.90
19025;DHT22;9645;51.448;6.260;2022-12-18T11:16:59;0.20;99.90
19025;DHT22;9645;51.448;6.260;2022-12-18T11:19:31;0.30;99.90
19025;DHT22;9645;51.448;6.260;2022-12-18T11:22:00;0.10;99.90
19025;DHT22;9645;51.448;6.260;2022-12-18T11:24:31;0.00;99.90
19025;DHT22;9645;51.448;6.260;2022-12-18T11:27:03;-0.20;99.90
19025;DHT22;9645;51.448;6.260;2022-12-18T11:29:35;-0.10;99.90
19025;DHT22;9645;51.448;6.260;2022-12-18T11:32:24;-0.20;99.90
19025;DHT22;9645;51.448;6.260;2022-12-18T11:34:55;-0.30;99.90
19025;DHT22;9645;51.448;6.260;2022-12-18T11:37:24;-0.40;99.90
19025;DHT22;9645;51.448;6.260;2022-12-18T11:39:54;-0.40;99.90
19025;DHT22;9645;51.448;6.260;2022-12-18T11:42:27;-0.40;99.90
19025;DHT22;9645;51.448;6.260;2022-12-18T11:45:00;-0.40;99.90
19025;DHT22;9645;51.448;6.260;2022-12-18T11:47:33;-0.40;99.90
19025;DHT22;9645;51.448;6.260;2022-12-18T11:50:03;-0.50;99.90
19025;DHT22;9645;51.448;6.260;2022-12-18T11:52:34;-0.50;99.90
19025;DHT22;9645;51.448;6.260;2022-12-18T11:55:11;-0.40;99.90
19025;DHT22;9645;51.448;6.260;2022-12-18T11:57:49;-0.50;99.90
19025;DHT22;9645;51.448;6.260;2022-12-18T12:00:20;-0.30;99.90
19025;DHT22;9645;51.448;6.260;2022-12-18T12:03:15;-0.40;99.90
19025;DHT22;9645;51.448;6.260;2022-12-18T12:05:55;-0.30;99.90
19025;DHT22;9645;51.448;6.260;2022-12-18T12:08:31;-0.30;99.90
19025;DHT22;9645;51.448;6.260;2022-12-18T12:11:07;-0.40;99.90
19025;DHT22;9645;51.448;6.260;2022-12-18T12:14:01;-0.30;99.90
19025;DHT22;9645;51.448;6.260;2022-12-18T12:16:36;-0.30;99.90
19025;DHT22;9645;51.448;6.260;2022-12-18T12:19:19;-0.30;99.90
19025;DHT22;9645;51.448;6.260;2022-12-18T12:21:55;-0.40;99.90
19025;DHT22;9645;51.448;6.260;2022-12-18T12:24:37;-0.40;99.90
19025;DHT22;9645;51.448;6.260;2022-12-18T12:27:13;-0.40;99.90
19025;DHT22;9645;51.448;6.260;2022-12-18T12:29:52;3.10;99.90
19025;DHT22;9645;51.448;6.260;2022-12-18T12:32:37;-0.30;99.90
19025;DHT22;9645;51.448;6.260;2022-12-18T12:35:22;-0.40;99.90
19025;DHT22;9645;51.448;6.260;2022-12-18T12:38:05;-0.30;99.90
19025;DHT22;9645;51.448;6.260;2022-12-18T12:40:39;-0.40;99.90
19025;DHT22;9645;51.448;6.260;2022-12-18T12:43:20;-0.40;99.90
19025;DHT22;9645;51.448;6.260;2022-12-18T12:45:52;-0.50;99.90
19025;DHT22;9645;51.448;6.260;2022-12-18T12:48:33;-0.30;99.90
19025;DHT22;9645;51.448;6.260;2022-12-18T12:51:09;-0.30;99.90
19025;DHT22;9645;51.448;6.260;2022-12-18T12:53:39;-0.30;99.90
19025;DHT22;9645;51.448;6.260;2022-12-18T12:56:10;-0.20;99.90
19025;DHT22;9645;51.448;6.260;2022-12-18T12:58:46;-0.30;99.90
19025;DHT22;9645;51.448;6.260;2022-12-18T13:01:25;-0.30;99.90
19025;DHT22;9645;51.448;6.260;2022-12-18T13:04:05;-0.30;99.90
19025;DHT22;9645;51.448;6.260;2022-12-18T13:06:46;-0.30;99.90
19025;DHT22;9645;51.448;6.260;2022-12-18T13:09:16;-0.20;99.90
19025;DHT22;9645;51.448;6.260;2022-12-18T13:11:44;-0.30;99.90
19025;DHT22;9645;51.448;6.260;2022-12-18T13:14:31;-0.20;99.90
19025;DHT22;9645;51.448;6.260;2022-12-18T13:17:21;-0.20;99.90
19025;DHT22;9645;51.448;6.260;2022-12-18T13:20:07;-0.20;99.90
19025;DHT22;9645;51.448;6.260;2022-12-18T13:22:37;-0.20;99.90
19025;DHT22;9645;51.448;6.260;2022-12-18T13:25:33;-0.10;99.90
19025;DHT22;9645;51.448;6.260;2022-12-18T13:28:09;-0.10;99.90
19025;DHT22;9645;51.448;6.260;2022-12-18T13:30:56;-0.10;99.90
19025;DHT22;9645;51.448;6.260;2022-12-18T13:33:43;-0.20;99.90
19025;DHT22;9645;51.448;6.260;2022-12-18T13:36:16;-0.20;99.90
19025;DHT22;9645;51.448;6.260;2022-12-18T13:39:21;-0.20;99.90
19025;DHT22;9645;51.448;6.260;2022-12-18T13:41:51;-0.30;99.90
19025;DHT22;9645;51.448;6.260;2022-12-18T13:44:33;-0.20;99.90
19025;DHT22;9645;51.448;6.260;2022-12-18T13:47:03;-0.20;99.90
19025;DHT22;9645;51.448;6.260;2022-12-18T13:49:36;-0.30;99.90
19025;DHT22;9645;51.448;6.260;2022-12-18T13:52:16;-0.30;99.90
19025;DHT22;9645;51.448;6.260;2022-12-18T13:54:47;-0.30;99.90
19025;DHT22;9645;51.448;6.260;2022-12-18T13:57:26;-0.30;99.90
19025;DHT22;9645;51.448;6.260;2022-12-18T13:59:54;-0.30;99.90
19025;DHT22;9645;51.448;6.260;2022-12-18T14:02:23;-0.20;99.90
19025;DHT22;9645;51.448;6.260;2022-12-18T14:04:53;-0.30;99.90
19025;DHT22;9645;51.448;6.260;2022-12-18T14:07:22;2.20;99.90
19025;DHT22;9645;51.448;6.260;2022-12-18T14:09:51;-0.30;99.90
19025;DHT22;9645;51.448;6.260;2022-12-18T14:12:21;-0.40;99.90
19025;DHT22;9645;51.448;6.260;2022-12-18T14:15:16;-1.10;99.90
19025;DHT22;9645;51.448;6.260;2022-12-18T14:17:47;-0.50;99.90
19025;DHT22;9645;51.448;6.260;2022-12-18T14:20:15;-0.50;99.90
19025;DHT22;9645;51.448;6.260;2022-12-18T14:22:45;-0.40;99.90
19025;DHT22;9645;51.448;6.260;2022-12-18T14:25:18;-0.50;99.90
19025;DHT22;9645;51.448;6.260;2022-12-18T14:27:47;-0.50;99.90
19025;DHT22;9645;51.448;6.260;2022-12-18T14:30:33;-0.60;99.90
19025;DHT22;9645;51.448;6.260;2022-12-18T14:33:09;-0.50;99.90
19025;DHT22;9645;51.448;6.260;2022-12-18T14:35:39;-0.50;99.90
19025;DHT22;9645;51.448;6.260;2022-12-18T14:38:25;-0.50;99.90
19025;DHT22;9645;51.448;6.260;2022-12-18T14:40:54;-0.50;99.90
19025;DHT22;9645;51.448;6.260;2022-12-18T14:43:31;-0.50;99.90
19025;DHT22;9645;51.448;6.260;2022-12-18T14:45:59;-0.80;99.90
19025;DHT22;9645;51.448;6.260;2022-12-18T14:48:35;-0.60;99.90
19025;DHT22;9645;51.448;6.260;2022-12-18T14:51:06;-0.60;99.90
19025;DHT22;9645;51.448;6.260;2022-12-18T14:53:36;-0.70;99.90
19025;DHT22;9645;51.448;6.260;2022-12-18T14:56:14;-0.60;99.90
19025;DHT22;9645;51.448;6.260;2022-12-18T14:58:46;-0.50;99.90
19025;DHT22;9645;51.448;6.260;2022-12-18T15:01:28;-0.60;99.90
19025;DHT22;9645;51.448;6.260;2022-12-18T15:03:57;-0.60;99.90
19025;DHT22;9645;51.448;6.260;2022-12-18T15:06:29;-0.60;99.90
19025;DHT22;9645;51.448;6.260;2022-12-18T15:08:57;-0.70;99.90
19025;DHT22;9645;51.448;6.260;2022-12-18T15:11:32;-0.70;99.90
19025;DHT22;9645;51.448;6.260;2022-12-18T15:14:03;-0.70;99.90
19025;DHT22;9645;51.448;6.260;2022-12-18T15:16:51;-0.70;99.90
19025;DHT22;9645;51.448;6.260;2022-12-18T15:19:19;-0.80;99.90
19025;DHT22;9645;51.448;6.260;2022-12-18T15:21:48;-0.70;99.90
19025;DHT22;9645;51.448;6.260;2022-12-18T15:24:18;-0.80;99.90
19025;DHT22;9645;51.448;6.260;2022-12-18T15:29:22;-0.70;99.90
19025;DHT22;9645;51.448;6.260;2022-12-18T15:32:04;-0.70;99.90
19025;DHT22;9645;51.448;6.260;2022-12-18T15:34:32;-0.70;99.90
19025;DHT22;9645;51.448;6.260;2022-12-18T15:37:00;-0.70;99.90
19025;DHT22;9645;51.448;6.260;2022-12-18T15:39:27;-0.70;99.90
19025;DHT22;9645;51.448;6.260;2022-12-18T15:41:54;-0.80;99.90
19025;DHT22;9645;51.448;6.260;2022-12-18T15:44:39;-0.80;99.90
19025;DHT22;9645;51.448;6.260;2022-12-18T15:47:11;-0.80;99.90
19025;DHT22;9645;51.448;6.260;2022-12-18T15:49:38;-0.90;99.90
19025;DHT22;9645;51.448;6.260;2022-12-18T15:52:12;-0.80;99.90
19025;DHT22;9645;51.448;6.260;2022-12-18T15:54:51;-0.80;99.90
19025;DHT22;9645;51.448;6.260;2022-12-18T15:57:35;-0.80;99.90
19025;DHT22;9645;51.448;6.260;2022-12-18T16:00:03;1.60;99.90
19025;DHT22;9645;51.448;6.260;2022-12-18T16:02:30;-0.90;99.90
19025;DHT22;9645;51.448;6.260;2022-12-18T16:04:57;-0.70;99.90
19025;DHT22;9645;51.448;6.260;2022-12-18T16:07:25;-0.80;99.90
19025;DHT22;9645;51.448;6.260;2022-12-18T16:09:52;-0.70;99.90
19025;DHT22;9645;51.448;6.260;2022-12-18T16:12:21;-0.80;99.90
19025;DHT22;9645;51.448;6.260;2022-12-18T16:14:49;-0.80;99.90
19025;DHT22;9645;51.448;6.260;2022-12-18T16:17:16;-0.80;99.90
19025;DHT22;9645;51.448;6.260;2022-12-18T16:19:43;-0.80;99.90
19025;DHT22;9645;51.448;6.260;2022-12-18T16:22:18;-0.80;99.90
19025;DHT22;9645;51.448;6.260;2022-12-18T16:24:51;-0.90;99.90
19025;DHT22;9645;51.448;6.260;2022-12-18T16:27:19;-0.90;99.90
19025;DHT22;9645;51.448;6.260;2022-12-18T16:29:46;-0.90;99.90
19025;DHT22;9645;51.448;6.260;2022-12-18T16:32:15;-0.90;99.90
19025;DHT22;9645;51.448;6.260;2022-12-18T16:34:43;-0.90;99.90
19025;DHT22;9645;51.448;6.260;2022-12-18T16:37:11;-0.90;99.90
19025;DHT22;9645;51.448;6.260;2022-12-18T16:39:39;-0.80;99.90
19025;DHT22;9645;51.448;6.260;2022-12-18T16:42:11;-0.90;99.90
19025;DHT22;9645;51.448;6.260;2022-12-18T16:44:40;-0.90;99.90
19025;DHT22;9645;51.448;6.260;2022-12-18T16:47:07;-0.90;99.90
19025;DHT22;9645;51.448;6.260;2022-12-18T16:49:34;-0.90;99.90
19025;DHT22;9645;51.448;6.260;2022-12-18T16:52:01;-0.90;99.90
19025;DHT22;9645;51.448;6.260;2022-12-18T16:54:28;-1.00;99.90
19025;DHT22;9645;51.448;6.260;2022-12-18T16:56:55;-1.00;99.90
19025;DHT22;9645;51.448;6.260;2022-12-18T16:59:24;-1.00;99.90
19025;DHT22;9645;51.448;6.260;2022-12-18T17:01:52;-1.00;99.90
19025;DHT22;9645;51.448;6.260;2022-12-18T17:04:20;-1.00;99.90
19025;DHT22;9645;51.448;6.260;2022-12-18T17:06:47;-1.10;99.90
19025;DHT22;9645;51.448;6.260;2022-12-18T17:09:17;-1.00;99.90
19025;DHT22;9645;51.448;6.260;2022-12-18T17:14:14;-1.00;99.90
19025;DHT22;9645;51.448;6.260;2022-12-18T17:16:43;-1.00;99.90
19025;DHT22;9645;51.448;6.260;2022-12-18T17:19:11;-1.00;99.90
19025;DHT22;9645;51.448;6.260;2022-12-18T17:21:39;-1.00;99.90
19025;DHT22;9645;51.448;6.260;2022-12-18T17:24:06;-1.00;99.90
19025;DHT22;9645;51.448;6.260;2022-12-18T17:26:33;-1.10;99.90
19025;DHT22;9645;51.448;6.260;2022-12-18T17:31:29;-0.90;99.90
19025;DHT22;9645;51.448;6.260;2022-12-18T17:33:58;-0.90;99.90
19025;DHT22;9645;51.448;6.260;2022-12-18T17:38:57;-0.90;99.90
19025;DHT22;9645;51.448;6.260;2022-12-18T17:41:26;-1.00;99.90
19025;DHT22;9645;51.448;6.260;2022-12-18T17:43:54;-0.90;99.90
19025;DHT22;9645;51.448;6.260;2022-12-18T17:46:21;-0.90;99.90
19025;DHT22;9645;51.448;6.260;2022-12-18T17:48:49;-0.90;99.90
19025;DHT22;9645;51.448;6.260;2022-12-18T17:51:17;-0.90;99.90
19025;DHT22;9645;51.448;6.260;2022-12-18T17:53:44;-0.80;99.90
19025;DHT22;9645;51.448;6.260;2022-12-18T17:56:12;-1.00;99.90
19025;DHT22;9645;51.448;6.260;2022-12-18T17:58:40;-0.90;99.90
19025;DHT22;9645;51.448;6.260;2022-12-18T18:01:08;-1.00;99.90
19025;DHT22;9645;51.448;6.260;2022-12-18T18:03:35;-0.90;99.90
19025;DHT22;9645;51.448;6.260;2022-12-18T18:06:04;-0.80;99.90
19025;DHT22;9645;51.448;6.260;2022-12-18T18:08:33;-0.90;99.90
19025;DHT22;9645;51.448;6.260;2022-12-18T18:11:04;-0.80;99.90
19025;DHT22;9645;51.448;6.260;2022-12-18T18:13:45;-0.90;99.90